Airfield :
LOGIN :

Register | Disclaimer

   EN    FR    IT 

 










Legend :    VFR   Marginal VFR   IFR   Intensive IFR   Very Intensive IFR
Visi :
Ceiling :
>= 8 km
>= 3000ft
5 to 8 km
1000 to 3000 ft
1500m to 5 km
500 to 1000 ft
800 to 1500m
200 to 500 ft
< 800m
< 200 ft
Symbols :   Thunderstorms  Fog  Heavy snow  Heavy precipitations  Wind > 20 kt
SIGMETs :     Misc.  Thunderstorms  Icing  Turbulence  Mountain Waves  Volcanic Ashes






- Airport Elevation : 1325 ft
- IATA code : EBU


LFMH - St-Etienne Boutheon

CURRENT METAR :
  • 191030Z AUTO 29008KT 250V330 9999 -RA SCT030/// BKN040/// BKN052/// ///TCU 15/10 Q1017

EXPIRED METARs :
  • 191000Z AUTO 29005KT 240V330 9999 FEW054/// BKN064/// BKN120/// ///TCU 17/10 Q1017
  • 190930Z AUTO 26007KT 230V290 9999 FEW043 BKN054 BKN064 16/09 Q1017
  • 190900Z AUTO 25005KT 220V280 9999 BKN039/// OVC045/// ///CB 15/10 Q1017
  • 190830Z AUTO 25005KT 220V290 9999 BKN043 OVC050 15/10 Q1016
  • 190800Z AUTO 22007KT 190V250 9999 FEW054 BKN160 15/10 Q1016

Expired Forecast.
ATIS : +33 4 77 36 17 51



MET'MAP, your aeronautical weather chart ! - Copyright ORBIFLY December 2007 - Disclaimer

ORBIFLY MET'MAP TEAM :

Programming & Development : Alexandra Zaïnal
Concept & original design : Baudouin d'Aumeries
Assistance for programming : Marc-Olivier Méhu
Technical & hardware support : Manuel Goepfert

Contact : metmap@orbifly.com




SOURCES & CREDITS :

   NOAA